sensor_id;sensor_type;location;lat;lon;timestamp;pressure;altitude;pressure_sealevel;temperature;humidity
50349;BME280;36250;48.740;22.174;2022-08-19T00:01:21;99859.53;;;22.70;72.06
50349;BME280;36250;48.740;22.174;2022-08-19T00:03:47;99849.06;;;22.58;72.48
50349;BME280;36250;48.740;22.174;2022-08-19T00:06:13;99848.06;;;22.38;73.96
50349;BME280;36250;48.740;22.174;2022-08-19T00:08:39;99857.03;;;22.28;74.11
50349;BME280;36250;48.740;22.174;2022-08-19T00:11:04;99859.47;;;22.25;74.52
50349;BME280;36250;48.740;22.174;2022-08-19T00:13:30;99858.38;;;22.31;74.55
50349;BME280;36250;48.740;22.174;2022-08-19T00:15:56;99854.88;;;22.31;74.48
50349;BME280;36250;48.740;22.174;2022-08-19T00:18:21;99854.03;;;22.35;74.23
50349;BME280;36250;48.740;22.174;2022-08-19T00:20:47;99848.06;;;22.38;74.11
50349;BME280;36250;48.740;22.174;2022-08-19T00:23:12;99855.38;;;22.38;74.54
50349;BME280;36250;48.740;22.174;2022-08-19T00:25:37;99845.41;;;22.33;74.75
50349;BME280;36250;48.740;22.174;2022-08-19T00:28:03;99857.03;;;22.28;75.21
50349;BME280;36250;48.740;22.174;2022-08-19T00:30:29;99855.72;;;22.21;75.34
50349;BME280;36250;48.740;22.174;2022-08-19T00:32:55;99845.53;;;22.12;74.87
50349;BME280;36250;48.740;22.174;2022-08-19T00:35:21;99860.94;;;22.02;75.19
50349;BME280;36250;48.740;22.174;2022-08-19T00:37:47;99865.50;;;22.01;74.79
50349;BME280;36250;48.740;22.174;2022-08-19T00:40:14;99861.53;;;21.88;75.29
50349;BME280;36250;48.740;22.174;2022-08-19T00:42:40;99863.16;;;21.79;75.96
50349;BME280;36250;48.740;22.174;2022-08-19T00:45:11;99860.22;;;21.70;76.63
50349;BME280;36250;48.740;22.174;2022-08-19T00:47:39;99858.88;;;21.67;76.80
50349;BME280;36250;48.740;22.174;2022-08-19T00:50:05;99864.81;;;21.64;76.85
50349;BME280;36250;48.740;22.174;2022-08-19T00:52:33;99863.72;;;21.60;77.16
50349;BME280;36250;48.740;22.174;2022-08-19T00:55:00;99868.03;;;21.56;77.45
50349;BME280;36250;48.740;22.174;2022-08-19T00:57:37;99871.28;;;21.48;77.87
50349;BME280;36250;48.740;22.174;2022-08-19T01:00:07;99869.66;;;21.41;78.20
50349;BME280;36250;48.740;22.174;2022-08-19T01:02:34;99874.25;;;21.41;78.50
50349;BME280;36250;48.740;22.174;2022-08-19T01:05:03;99875.31;;;21.45;78.36
50349;BME280;36250;48.740;22.174;2022-08-19T01:07:29;99866.97;;;21.47;78.38
50349;BME280;36250;48.740;22.174;2022-08-19T01:09:55;99866.97;;;21.47;78.58
50349;BME280;36250;48.740;22.174;2022-08-19T01:12:20;99865.38;;;21.46;78.53
50349;BME280;36250;48.740;22.174;2022-08-19T01:14:46;99868.31;;;21.44;78.69
50349;BME280;36250;48.740;22.174;2022-08-19T01:17:14;99875.03;;;21.41;78.84
50349;BME280;36250;48.740;22.174;2022-08-19T01:19:42;99879.38;;;21.37;79.28
50349;BME280;36250;48.740;22.174;2022-08-19T01:24:48;99886.66;;;21.37;80.81
50349;BME280;36250;48.740;22.174;2022-08-19T01:27:13;99885.81;;;21.41;80.69
50349;BME280;36250;48.740;22.174;2022-08-19T01:29:41;99882.84;;;21.53;80.58
50349;BME280;36250;48.740;22.174;2022-08-19T01:32:09;99879.91;;;21.65;80.29
50349;BME280;36250;48.740;22.174;2022-08-19T01:34:37;99882.31;;;21.72;79.82
50349;BME280;36250;48.740;22.174;2022-08-19T01:37:10;99882.59;;;21.70;79.38
50349;BME280;36250;48.740;22.174;2022-08-19T01:39:38;99886.34;;;21.69;79.20
50349;BME280;36250;48.740;22.174;2022-08-19T01:42:04;99886.91;;;21.66;78.95
50349;BME280;36250;48.740;22.174;2022-08-19T01:44:31;99890.13;;;21.58;79.25
50349;BME280;36250;48.740;22.174;2022-08-19T01:46:57;99895.00;;;21.46;79.57
50349;BME280;36250;48.740;22.174;2022-08-19T01:49:24;99889.06;;;21.33;80.04
50349;BME280;36250;48.740;22.174;2022-08-19T01:51:51;99893.94;;;21.21;80.49
50349;BME280;36250;48.740;22.174;2022-08-19T01:54:21;99898.25;;;21.11;80.72
50349;BME280;36250;48.740;22.174;2022-08-19T01:56:46;99892.56;;;21.08;81.19
50349;BME280;36250;48.740;22.174;2022-08-19T01:59:17;99889.34;;;21.11;81.49
50349;BME280;36250;48.740;22.174;2022-08-19T02:01:44;99889.63;;;21.09;81.57
50349;BME280;36250;48.740;22.174;2022-08-19T02:04:09;99895.53;;;21.17;81.80
50349;BME280;36250;48.740;22.174;2022-08-19T02:06:34;99895.81;;;21.25;81.80
50349;BME280;36250;48.740;22.174;2022-08-19T02:09:02;99889.06;;;21.38;81.67
50349;BME280;36250;48.740;22.174;2022-08-19T02:11:31;99891.47;;;21.55;81.07
50349;BME280;36250;48.740;22.174;2022-08-19T02:13:57;99883.41;;;21.71;80.39
50349;BME280;36250;48.740;22.174;2022-08-19T02:16:23;99874.19;;;21.82;80.15
50349;BME280;36250;48.740;22.174;2022-08-19T02:18:49;99871.75;;;21.91;79.55
50349;BME280;36250;48.740;22.174;2022-08-19T02:21:18;99863.66;;;21.96;79.75
50349;BME280;36250;48.740;22.174;2022-08-19T02:23:45;99863.88;;;22.00;79.13
50349;BME280;36250;48.740;22.174;2022-08-19T02:26:10;99866.31;;;22.02;79.16
50349;BME280;36250;48.740;22.174;2022-08-19T02:28:37;99868.19;;;22.01;79.11
50349;BME280;36250;48.740;22.174;2022-08-19T02:31:03;99871.72;;;21.96;79.15
50349;BME280;36250;48.740;22.174;2022-08-19T02:33:34;99872.31;;;21.83;78.90
50349;BME280;36250;48.740;22.174;2022-08-19T02:35:59;99865.88;;;21.63;78.48
50349;BME280;36250;48.740;22.174;2022-08-19T02:38:24;99877.75;;;21.52;78.60
50349;BME280;36250;48.740;22.174;2022-08-19T02:40:57;99879.91;;;21.45;78.73
50349;BME280;36250;48.740;22.174;2022-08-19T02:43:23;99875.34;;;21.40;78.38
50349;BME280;36250;48.740;22.174;2022-08-19T02:45:49;99867.53;;;21.23;78.88
50349;BME280;36250;48.740;22.174;2022-08-19T02:48:17;99875.63;;;21.07;79.40
50349;BME280;36250;48.740;22.174;2022-08-19T02:50:44;99858.91;;;21.00;79.69
50349;BME280;36250;48.740;22.174;2022-08-19T02:53:09;99859.72;;;20.95;80.16
50349;BME280;36250;48.740;22.174;2022-08-19T02:55:35;99848.44;;;20.93;80.53
50349;BME280;36250;48.740;22.174;2022-08-19T02:58:00;99849.75;;;20.96;81.16
50349;BME280;36250;48.740;22.174;2022-08-19T03:00:27;99851.38;;;20.97;81.29
50349;BME280;36250;48.740;22.174;2022-08-19T03:02:53;99847.34;;;20.99;81.52
50349;BME280;36250;48.740;22.174;2022-08-19T03:05:19;99846.53;;;21.04;81.29
50349;BME280;36250;48.740;22.174;2022-08-19T03:07:44;99847.88;;;21.07;81.87
50349;BME280;36250;48.740;22.174;2022-08-19T03:10:11;99856.78;;;21.12;81.66
50349;BME280;36250;48.740;22.174;2022-08-19T03:12:37;99863.47;;;21.20;81.47
50349;BME280;36250;48.740;22.174;2022-08-19T03:15:07;99871.03;;;21.28;81.28
50349;BME280;36250;48.740;22.174;2022-08-19T03:17:34;99872.34;;;21.36;80.49
50349;BME280;36250;48.740;22.174;2022-08-19T03:19:59;99873.44;;;21.46;80.48
50349;BME280;36250;48.740;22.174;2022-08-19T03:22:25;99867.53;;;21.49;80.56
50349;BME280;36250;48.740;22.174;2022-08-19T03:24:50;99872.38;;;21.47;80.53
50349;BME280;36250;48.740;22.174;2022-08-19T03:27:16;99873.72;;;21.44;80.80
50349;BME280;36250;48.740;22.174;2022-08-19T03:29:43;99864.81;;;21.38;81.53
50349;BME280;36250;48.740;22.174;2022-08-19T03:32:09;99863.50;;;21.36;81.67
50349;BME280;36250;48.740;22.174;2022-08-19T03:34:37;99871.81;;;21.34;82.40
50349;BME280;36250;48.740;22.174;2022-08-19T03:37:06;99862.94;;;21.39;82.21
50349;BME280;36250;48.740;22.174;2022-08-19T03:39:32;99865.38;;;21.46;82.08
50349;BME280;36250;48.740;22.174;2022-08-19T03:41:57;99864.81;;;21.54;81.78
50349;BME280;36250;48.740;22.174;2022-08-19T03:44:28;99866.41;;;21.60;81.34
50349;BME280;36250;48.740;22.174;2022-08-19T03:46:56;99865.88;;;21.68;80.98
50349;BME280;36250;48.740;22.174;2022-08-19T03:49:24;99866.94;;;21.73;80.58
50349;BME280;36250;48.740;22.174;2022-08-19T03:51:50;99867.47;;;21.75;80.39
50349;BME280;36250;48.740;22.174;2022-08-19T03:54:19;99872.31;;;21.78;80.37
50349;BME280;36250;48.740;22.174;2022-08-19T03:56:47;99878.78;;;21.82;80.53
50349;BME280;36250;48.740;22.174;2022-08-19T03:59:16;99876.63;;;21.84;80.26
50349;BME280;36250;48.740;22.174;2022-08-19T04:01:42;99875.78;;;21.89;80.02
50349;BME280;36250;48.740;22.174;2022-08-19T04:04:08;99883.59;;;21.95;79.66
50349;BME280;36250;48.740;22.174;2022-08-19T04:06:36;99881.41;;;22.03;79.21
50349;BME280;36250;48.740;22.174;2022-08-19T04:09:05;99883.28;;;22.07;79.21
50349;BME280;36250;48.740;22.174;2022-08-19T04:11:35;99881.38;;;22.13;78.81
50349;BME280;36250;48.740;22.174;2022-08-19T04:14:02;99887.28;;;22.20;78.42
50349;BME280;36250;48.740;22.174;2022-08-19T04:16:28;99879.19;;;22.25;78.20
50349;BME280;36250;48.740;22.174;2022-08-19T04:18:54;99892.63;;;22.31;78.05
50349;BME280;36250;48.740;22.174;2022-08-19T04:21:23;99883.69;;;22.35;77.91
50349;BME280;36250;48.740;22.174;2022-08-19T04:23:49;99879.09;;;22.41;77.47
50349;BME280;36250;48.740;22.174;2022-08-19T04:26:20;99889.84;;;22.51;77.06
50349;BME280;36250;48.740;22.174;2022-08-19T04:28:47;99892.78;;;22.60;76.45
50349;BME280;36250;48.740;22.174;2022-08-19T04:31:14;99896.50;;;22.69;76.41
50349;BME280;36250;48.740;22.174;2022-08-19T04:33:41;99891.91;;;22.70;76.36
50349;BME280;36250;48.740;22.174;2022-08-19T04:36:06;99902.16;;;22.73;76.58
50349;BME280;36250;48.740;22.174;2022-08-19T04:38:32;99905.09;;;22.77;76.45
50349;BME280;36250;48.740;22.174;2022-08-19T04:40:58;99903.72;;;22.79;76.34
50349;BME280;36250;48.740;22.174;2022-08-19T04:43:44;99907.47;;;22.83;75.95
50349;BME280;36250;48.740;22.174;2022-08-19T04:46:13;99914.47;;;22.90;75.62
50349;BME280;36250;48.740;22.174;2022-08-19T04:48:39;99913.63;;;22.94;75.57
50349;BME280;36250;48.740;22.174;2022-08-19T04:51:10;99918.16;;;22.99;75.87
50349;BME280;36250;48.740;22.174;2022-08-19T04:53:37;99927.56;;;23.07;75.37
50349;BME280;36250;48.740;22.174;2022-08-19T04:56:14;99938.63;;;23.10;75.41
50349;BME280;36250;48.740;22.174;2022-08-19T04:58:42;99937.34;;;23.03;75.57
50349;BME280;36250;48.740;22.174;2022-08-19T05:01:09;99929.00;;;22.94;75.40
50349;BME280;36250;48.740;22.174;2022-08-19T05:03:36;99940.06;;;22.97;74.85
50349;BME280;36250;48.740;22.174;2022-08-19T05:06:11;99937.06;;;22.99;74.60
50349;BME280;36250;48.740;22.174;2022-08-19T05:08:38;99936.03;;;22.95;74.54
50349;BME280;36250;48.740;22.174;2022-08-19T05:11:20;99926.59;;;22.92;74.84
50349;BME280;36250;48.740;22.174;2022-08-19T05:13:47;99929.84;;;22.94;74.04
50349;BME280;36250;48.740;22.174;2022-08-19T05:16:15;99932.50;;;22.99;73.77
50349;BME280;36250;48.740;22.174;2022-08-19T05:18:41;99927.88;;;23.05;73.45
50349;BME280;36250;48.740;22.174;2022-08-19T05:21:26;99928.91;;;23.09;73.37
50349;BME280;36250;48.740;22.174;2022-08-19T05:24:10;99935.13;;;23.10;73.09
50349;BME280;36250;48.740;22.174;2022-08-19T05:26:41;99931.09;;;23.02;73.45
50349;BME280;36250;48.740;22.174;2022-08-19T05:29:07;99926.22;;;23.04;74.01
50349;BME280;36250;48.740;22.174;2022-08-19T05:31:34;99928.34;;;23.12;73.26
50349;BME280;36250;48.740;22.174;2022-08-19T05:34:00;99923.69;;;23.18;73.48
50349;BME280;36250;48.740;22.174;2022-08-19T05:36:27;99922.03;;;23.22;74.21
50349;BME280;36250;48.740;22.174;2022-08-19T05:38:53;99921.72;;;23.34;74.77
50349;BME280;36250;48.740;22.174;2022-08-19T05:41:19;99928.63;;;23.46;75.63
50349;BME280;36250;48.740;22.174;2022-08-19T05:43:45;99925.66;;;23.47;76.31
50349;BME280;36250;48.740;22.174;2022-08-19T05:46:17;99928.56;;;23.56;77.58
50349;BME280;36250;48.740;22.174;2022-08-19T05:48:44;99931.69;;;23.68;76.80
50349;BME280;36250;48.740;22.174;2022-08-19T05:51:09;99925.59;;;23.82;76.24
50349;BME280;36250;48.740;22.174;2022-08-19T05:53:35;99936.31;;;23.92;76.04
50349;BME280;36250;48.740;22.174;2022-08-19T05:56:05;99932.44;;;24.04;75.14
50349;BME280;36250;48.740;22.174;2022-08-19T05:58:31;99937.72;;;24.14;75.49
50349;BME280;36250;48.740;22.174;2022-08-19T06:00:58;99936.75;;;24.29;75.28
50349;BME280;36250;48.740;22.174;2022-08-19T06:03:29;99943.94;;;24.39;74.41
50349;BME280;36250;48.740;22.174;2022-08-19T06:05:54;99949.78;;;24.46;74.20
50349;BME280;36250;48.740;22.174;2022-08-19T06:08:20;99946.88;;;24.62;72.78
50349;BME280;36250;48.740;22.174;2022-08-19T06:10:45;99935.69;;;24.68;72.52
50349;BME280;36250;48.740;22.174;2022-08-19T06:13:10;99940.78;;;24.75;72.15
50349;BME280;36250;48.740;22.174;2022-08-19T06:15:35;99938.50;;;24.82;72.77
50349;BME280;36250;48.740;22.174;2022-08-19T06:18:01;99927.44;;;24.98;71.66
50349;BME280;36250;48.740;22.174;2022-08-19T06:20:26;99930.63;;;25.19;70.42
50349;BME280;36250;48.740;22.174;2022-08-19T06:22:52;99934.81;;;25.30;69.43
50349;BME280;36250;48.740;22.174;2022-08-19T06:25:18;99929.94;;;25.46;66.76
50349;BME280;36250;48.740;22.174;2022-08-19T06:27:43;99941.13;;;25.59;66.40
50349;BME280;36250;48.740;22.174;2022-08-19T06:30:09;99934.00;;;25.63;66.42
50349;BME280;36250;48.740;22.174;2022-08-19T06:32:36;99929.50;;;25.72;66.06
50349;BME280;36250;48.740;22.174;2022-08-19T06:35:02;99930.50;;;25.91;65.87
50349;BME280;36250;48.740;22.174;2022-08-19T06:37:28;99941.28;;;26.10;64.96
50349;BME280;36250;48.740;22.174;2022-08-19T06:39:53;99932.34;;;26.23;64.61
50349;BME280;36250;48.740;22.174;2022-08-19T06:42:19;99939.69;;;26.37;64.01
50349;BME280;36250;48.740;22.174;2022-08-19T06:44:46;99932.22;;;26.42;63.02
50349;BME280;36250;48.740;22.174;2022-08-19T06:47:17;99930.41;;;26.52;63.44
50349;BME280;36250;48.740;22.174;2022-08-19T06:49:43;99929.88;;;26.64;62.56
50349;BME280;36250;48.740;22.174;2022-08-19T06:52:09;99936.06;;;26.78;62.01
50349;BME280;36250;48.740;22.174;2022-08-19T06:54:37;99925.06;;;26.97;59.96
50349;BME280;36250;48.740;22.174;2022-08-19T06:57:03;99920.25;;;26.94;60.60
50349;BME280;36250;48.740;22.174;2022-08-19T06:59:30;99914.03;;;27.16;58.57
50349;BME280;36250;48.740;22.174;2022-08-19T07:01:59;99909.16;;;27.36;56.43
50349;BME280;36250;48.740;22.174;2022-08-19T07:04:28;99906.19;;;27.46;55.86
50349;BME280;36250;48.740;22.174;2022-08-19T07:07:04;99906.78;;;27.66;55.78
50349;BME280;36250;48.740;22.174;2022-08-19T07:09:33;99904.47;;;27.82;54.33
50349;BME280;36250;48.740;22.174;2022-08-19T07:11:59;99899.41;;;27.98;52.90
50349;BME280;36250;48.740;22.174;2022-08-19T07:14:26;99890.50;;;28.15;52.62
50349;BME280;36250;48.740;22.174;2022-08-19T07:16:54;99881.06;;;28.30;49.65
50349;BME280;36250;48.740;22.174;2022-08-19T07:19:21;99883.00;;;28.39;48.67
50349;BME280;36250;48.740;22.174;2022-08-19T07:21:48;99893.25;;;28.51;50.62
50349;BME280;36250;48.740;22.174;2022-08-19T07:24:15;99884.28;;;28.68;48.06
50349;BME280;36250;48.740;22.174;2022-08-19T07:26:42;99892.75;;;28.75;45.91
50349;BME280;36250;48.740;22.174;2022-08-19T07:29:09;99883.84;;;28.83;47.17
50349;BME280;36250;48.740;22.174;2022-08-19T07:31:36;99901.28;;;29.00;47.02
50349;BME280;36250;48.740;22.174;2022-08-19T07:34:07;99905.75;;;29.13;46.52
50349;BME280;36250;48.740;22.174;2022-08-19T07:36:37;99902.88;;;28.92;46.16
50349;BME280;36250;48.740;22.174;2022-08-19T07:39:08;99901.13;;;28.96;45.66
50349;BME280;36250;48.740;22.174;2022-08-19T07:41:35;99896.97;;;28.99;45.73
50349;BME280;36250;48.740;22.174;2022-08-19T07:44:03;99900.03;;;28.88;45.10
50349;BME280;36250;48.740;22.174;2022-08-19T07:46:32;99911.06;;;28.92;45.99
50349;BME280;36250;48.740;22.174;2022-08-19T07:48:59;99912.19;;;29.00;44.48
50349;BME280;36250;48.740;22.174;2022-08-19T07:51:26;99921.13;;;29.18;44.66
50349;BME280;36250;48.740;22.174;2022-08-19T07:53:52;99908.91;;;29.33;44.22
50349;BME280;36250;48.740;22.174;2022-08-19T07:56:19;99911.81;;;29.28;44.42
50349;BME280;36250;48.740;22.174;2022-08-19T07:58:47;99913.72;;;29.36;43.75
50349;BME280;36250;48.740;22.174;2022-08-19T08:01:16;99917.06;;;29.51;44.43
50349;BME280;36250;48.740;22.174;2022-08-19T08:03:42;99914.59;;;29.75;44.13
50349;BME280;36250;48.740;22.174;2022-08-19T08:06:26;99916.81;;;29.82;43.42
50349;BME280;36250;48.740;22.174;2022-08-19T08:09:10;99909.78;;;29.72;43.68
50349;BME280;36250;48.740;22.174;2022-08-19T08:11:39;99917.59;;;29.44;43.71
50349;BME280;36250;48.740;22.174;2022-08-19T08:14:06;99922.22;;;29.52;44.38
50349;BME280;36250;48.740;22.174;2022-08-19T08:16:36;99919.00;;;29.59;43.02
50349;BME280;36250;48.740;22.174;2022-08-19T08:19:04;99914.78;;;29.70;43.82
50349;BME280;36250;48.740;22.174;2022-08-19T08:21:31;99907.25;;;29.97;43.26
50349;BME280;36250;48.740;22.174;2022-08-19T08:23:57;99898.81;;;30.20;41.99
50349;BME280;36250;48.740;22.174;2022-08-19T08:26:22;99910.47;;;29.99;41.86
50349;BME280;36250;48.740;22.174;2022-08-19T08:28:48;99911.03;;;30.14;42.86
50349;BME280;36250;48.740;22.174;2022-08-19T08:31:14;99907.88;;;30.03;41.81
50349;BME280;36250;48.740;22.174;2022-08-19T08:33:39;99908.63;;;30.12;41.42
50349;BME280;36250;48.740;22.174;2022-08-19T08:36:07;99917.56;;;29.91;42.05
50349;BME280;36250;48.740;22.174;2022-08-19T08:38:33;99918.63;;;30.08;41.28
50349;BME280;36250;48.740;22.174;2022-08-19T08:41:28;99921.06;;;30.31;40.58
50349;BME280;36250;48.740;22.174;2022-08-19T08:43:54;99918.81;;;30.33;40.89
50349;BME280;36250;48.740;22.174;2022-08-19T08:49:06;99918.22;;;30.18;40.08
50349;BME280;36250;48.740;22.174;2022-08-19T08:51:41;99918.22;;;30.18;40.65
50349;BME280;36250;48.740;22.174;2022-08-19T08:54:10;99920.19;;;30.18;40.23
50349;BME280;36250;48.740;22.174;2022-08-19T08:56:44;99925.16;;;30.16;40.60
50349;BME280;36250;48.740;22.174;2022-08-19T08:59:21;99919.97;;;30.23;41.39
50349;BME280;36250;48.740;22.174;2022-08-19T09:01:49;99919.75;;;30.58;40.55
50349;BME280;36250;48.740;22.174;2022-08-19T09:04:15;99919.22;;;30.86;38.69
50349;BME280;36250;48.740;22.174;2022-08-19T09:07:17;99920.34;;;31.06;39.46
50349;BME280;36250;48.740;22.174;2022-08-19T09:09:49;99898.16;;;31.20;39.34
50349;BME280;36250;48.740;22.174;2022-08-19T09:15:29;99898.06;;;31.29;39.24
50349;BME280;36250;48.740;22.174;2022-08-19T09:18:00;99888.06;;;31.00;39.29
50349;BME280;36250;48.740;22.174;2022-08-19T09:20:27;99888.31;;;30.73;39.13
50349;BME280;36250;48.740;22.174;2022-08-19T09:22:53;99893.63;;;30.70;39.96
50349;BME280;36250;48.740;22.174;2022-08-19T09:25:20;99885.41;;;30.91;39.47
50349;BME280;36250;48.740;22.174;2022-08-19T09:27:50;99879.09;;;31.12;39.37
50349;BME280;36250;48.740;22.174;2022-08-19T09:30:20;99883.53;;;31.16;39.21
50349;BME280;36250;48.740;22.174;2022-08-19T09:32:46;99880.88;;;31.41;38.54
50349;BME280;36250;48.740;22.174;2022-08-19T09:35:13;99872.69;;;31.54;38.25
50349;BME280;36250;48.740;22.174;2022-08-19T09:37:39;99877.72;;;31.64;38.59
50349;BME280;36250;48.740;22.174;2022-08-19T09:40:05;99878.28;;;31.45;38.41
50349;BME280;36250;48.740;22.174;2022-08-19T09:42:31;99879.28;;;31.40;38.25
50349;BME280;36250;48.740;22.174;2022-08-19T09:44:57;99878.59;;;31.43;37.58
50349;BME280;36250;48.740;22.174;2022-08-19T09:47:22;99870.94;;;31.36;37.87
50349;BME280;36250;48.740;22.174;2022-08-19T09:49:47;99864.69;;;31.61;38.20
50349;BME280;36250;48.740;22.174;2022-08-19T09:52:14;99860.63;;;31.67;37.20
50349;BME280;36250;48.740;22.174;2022-08-19T09:54:41;99862.41;;;31.50;37.04
50349;BME280;36250;48.740;22.174;2022-08-19T09:57:06;99858.88;;;31.75;37.24
50349;BME280;36250;48.740;22.174;2022-08-19T09:59:32;99853.00;;;31.85;36.80
50349;BME280;36250;48.740;22.174;2022-08-19T10:01:57;99854.56;;;31.61;37.46
50349;BME280;36250;48.740;22.174;2022-08-19T10:04:22;99850.13;;;31.82;36.87
50349;BME280;36250;48.740;22.174;2022-08-19T10:06:49;99852.59;;;31.99;37.21
50349;BME280;36250;48.740;22.174;2022-08-19T10:09:17;99857.19;;;31.83;36.82
50349;BME280;36250;48.740;22.174;2022-08-19T10:11:44;99847.94;;;32.00;36.58
50349;BME280;36250;48.740;22.174;2022-08-19T10:14:15;99838.78;;;32.08;36.82
50349;BME280;36250;48.740;22.174;2022-08-19T10:16:41;99835.22;;;32.20;36.10
50349;BME280;36250;48.740;22.174;2022-08-19T10:19:08;99837.94;;;32.32;35.97
50349;BME280;36250;48.740;22.174;2022-08-19T10:21:34;99837.34;;;32.68;35.20
50349;BME280;36250;48.740;22.174;2022-08-19T10:24:02;99829.25;;;32.71;35.19
50349;BME280;36250;48.740;22.174;2022-08-19T10:26:33;99834.16;;;32.65;34.73
50349;BME280;36250;48.740;22.174;2022-08-19T10:28:59;99831.81;;;32.80;34.27
50349;BME280;36250;48.740;22.174;2022-08-19T10:31:28;99830.13;;;32.75;34.81
50349;BME280;36250;48.740;22.174;2022-08-19T10:33:54;99826.63;;;32.91;34.31
50349;BME280;36250;48.740;22.174;2022-08-19T10:36:24;99820.13;;;32.96;34.94
50349;BME280;36250;48.740;22.174;2022-08-19T10:38:52;99805.16;;;33.09;34.35
50349;BME280;36250;48.740;22.174;2022-08-19T10:41:21;99812.50;;;33.37;34.31
50349;BME280;36250;48.740;22.174;2022-08-19T10:43:50;99809.84;;;33.57;34.04
50349;BME280;36250;48.740;22.174;2022-08-19T10:46:17;99817.75;;;33.78;33.65
50349;BME280;36250;48.740;22.174;2022-08-19T10:48:44;99820.94;;;33.96;33.48
50349;BME280;36250;48.740;22.174;2022-08-19T10:51:09;99822.72;;;33.88;33.24
50349;BME280;36250;48.740;22.174;2022-08-19T10:53:54;99814.47;;;33.88;33.02
50349;BME280;36250;48.740;22.174;2022-08-19T10:56:21;99816.47;;;34.07;32.99
50349;BME280;36250;48.740;22.174;2022-08-19T10:59:05;99818.13;;;34.12;32.87
50349;BME280;36250;48.740;22.174;2022-08-19T11:01:31;99823.28;;;33.62;33.05
50349;BME280;36250;48.740;22.174;2022-08-19T11:04:00;99810.19;;;33.07;33.71
50349;BME280;36250;48.740;22.174;2022-08-19T11:06:25;99807.19;;;33.12;34.11
50349;BME280;36250;48.740;22.174;2022-08-19T11:08:52;99806.13;;;33.17;33.80
50349;BME280;36250;48.740;22.174;2022-08-19T11:11:18;99807.06;;;33.73;33.73
50349;BME280;36250;48.740;22.174;2022-08-19T11:13:43;99801.66;;;34.32;32.76
50349;BME280;36250;48.740;22.174;2022-08-19T11:16:17;99789.47;;;33.93;32.11
50349;BME280;36250;48.740;22.174;2022-08-19T11:18:44;99778.72;;;33.69;32.64
50349;BME280;36250;48.740;22.174;2022-08-19T11:21:25;99782.50;;;33.44;32.92
50349;BME280;36250;48.740;22.174;2022-08-19T11:23:55;99783.81;;;33.50;32.42
50349;BME280;36250;48.740;22.174;2022-08-19T11:26:22;99781.09;;;33.86;31.85
50349;BME280;36250;48.740;22.174;2022-08-19T11:28:48;99763.13;;;34.08;31.28
50349;BME280;36250;48.740;22.174;2022-08-19T11:31:16;99768.50;;;34.44;31.78
50349;BME280;36250;48.740;22.174;2022-08-19T11:33:42;99760.06;;;34.33;31.29
50349;BME280;36250;48.740;22.174;2022-08-19T11:36:08;99753.59;;;34.45;31.28
50349;BME280;36250;48.740;22.174;2022-08-19T11:38:35;99745.66;;;34.40;30.37
50349;BME280;36250;48.740;22.174;2022-08-19T11:41:03;99737.66;;;34.51;31.44
50349;BME280;36250;48.740;22.174;2022-08-19T11:43:29;99733.84;;;34.59;30.41
50349;BME280;36250;48.740;22.174;2022-08-19T11:45:56;99725.06;;;34.30;30.80
50349;BME280;36250;48.740;22.174;2022-08-19T11:48:22;99728.78;;;34.61;30.20
50349;BME280;36250;48.740;22.174;2022-08-19T11:50:49;99723.09;;;34.74;29.76
50349;BME280;36250;48.740;22.174;2022-08-19T11:53:16;99712.47;;;34.72;30.46
50349;BME280;36250;48.740;22.174;2022-08-19T11:55:43;99716.88;;;34.53;30.64
50349;BME280;36250;48.740;22.174;2022-08-19T11:58:10;99712.59;;;35.03;29.49
50349;BME280;36250;48.740;22.174;2022-08-19T12:00:35;99713.81;;;35.32;29.82
50349;BME280;36250;48.740;22.174;2022-08-19T12:03:02;99702.72;;;35.56;28.23
50349;BME280;36250;48.740;22.174;2022-08-19T12:05:27;99706.16;;;35.49;28.48
50349;BME280;36250;48.740;22.174;2022-08-19T12:07:52;99711.47;;;35.61;28.70
50349;BME280;36250;48.740;22.174;2022-08-19T12:10:20;99701.78;;;35.75;28.59
50349;BME280;36250;48.740;22.174;2022-08-19T12:12:46;99693.78;;;35.96;28.46
50349;BME280;36250;48.740;22.174;2022-08-19T12:15:11;99689.56;;;36.44;27.95
50349;BME280;36250;48.740;22.174;2022-08-19T12:17:37;99689.03;;;36.73;27.34
50349;BME280;36250;48.740;22.174;2022-08-19T12:20:04;99700.97;;;36.91;26.66
50349;BME280;36250;48.740;22.174;2022-08-19T12:22:30;99688.50;;;37.08;26.41
50349;BME280;36250;48.740;22.174;2022-08-19T12:24:55;99686.19;;;37.14;26.92
50349;BME280;36250;48.740;22.174;2022-08-19T12:27:21;99681.72;;;36.99;26.25
50349;BME280;36250;48.740;22.174;2022-08-19T12:29:46;99687.00;;;36.62;26.99
50349;BME280;36250;48.740;22.174;2022-08-19T12:32:12;99672.78;;;36.19;27.03
50349;BME280;36250;48.740;22.174;2022-08-19T12:34:38;99677.59;;;35.91;27.67
50349;BME280;36250;48.740;22.174;2022-08-19T12:37:05;99671.63;;;36.20;28.27
50349;BME280;36250;48.740;22.174;2022-08-19T12:39:35;99677.06;;;36.54;27.38
50349;BME280;36250;48.740;22.174;2022-08-19T12:42:00;99667.78;;;36.73;27.16
50349;BME280;36250;48.740;22.174;2022-08-19T12:44:25;99663.13;;;36.85;27.42
50349;BME280;36250;48.740;22.174;2022-08-19T12:46:51;99658.06;;;36.97;26.92
50349;BME280;36250;48.740;22.174;2022-08-19T12:49:16;99661.81;;;37.31;26.83
50349;BME280;36250;48.740;22.174;2022-08-19T12:51:42;99659.59;;;37.54;26.02
50349;BME280;36250;48.740;22.174;2022-08-19T12:54:07;99664.94;;;37.25;26.30
50349;BME280;36250;48.740;22.174;2022-08-19T12:56:33;99659.09;;;37.38;26.07
50349;BME280;36250;48.740;22.174;2022-08-19T12:59:01;99654.78;;;37.40;25.80
50349;BME280;36250;48.740;22.174;2022-08-19T13:01:27;99652.09;;;37.51;25.99